<?xml version="1.0" encoding="UTF-8" standalone="no" ?>
<gpx xmlns="http://www.topografix.com/GPX/1/1" xmlns:xsi="http://www.w3.org/2001/XMLSchema-instance" xsi:schemaLocation="http://www.topografix.com/GPX/1/1 http://www.topografix.com/GPX/1/1/gpx.xsd" version="1.1" creator="VisuGPX - https://www.visugpx.com">
  <metadata>
    <name>Prospection chemins praticables 1</name>
  </metadata>
  <trk>
    <name><![CDATA[Prospection chemins praticables 1_10]]></name>
    <trkseg>
      <trkpt lat="47.71593" lon="5.10388">
        <ele>478.07</ele>
        <time>2021-08-24T07:49:44Z</time>
      </trkpt>
      <trkpt lat="47.71603" lon="5.10373">
        <ele>477.74</ele>
        <time>2021-08-24T07:49:57Z</time>
      </trkpt>
      <trkpt lat="47.71614" lon="5.10356">
        <ele>477.4</ele>
        <time>2021-08-24T07:50:11Z</time>
      </trkpt>
      <trkpt lat="47.71622" lon="5.10336">
        <ele>477.04</ele>
        <time>2021-08-24T07:50:25Z</time>
      </trkpt>
      <trkpt lat="47.71628" lon="5.10316">
        <ele>476.53</ele>
        <time>2021-08-24T07:50:38Z</time>
      </trkpt>
      <trkpt lat="47.71634" lon="5.10308">
        <ele>476.03</ele>
        <time>2021-08-24T07:50:45Z</time>
      </trkpt>
      <trkpt lat="47.71636" lon="5.10303">
        <ele>475.84</ele>
        <time>2021-08-24T07:50:48Z</time>
      </trkpt>
      <trkpt lat="47.71638" lon="5.10299">
        <ele>475.6</ele>
        <time>2021-08-24T07:50:51Z</time>
      </trkpt>
      <trkpt lat="47.7164" lon="5.10293">
        <ele>475.01</ele>
        <time>2021-08-24T07:50:57Z</time>
      </trkpt>
      <trkpt lat="47.71642" lon="5.10289">
        <ele>475.52</ele>
        <time>2021-08-24T07:51:00Z</time>
      </trkpt>
      <trkpt lat="47.71655" lon="5.10267">
        <ele>475.34</ele>
        <time>2021-08-24T07:51:16Z</time>
      </trkpt>
      <trkpt lat="47.71659" lon="5.10263">
        <ele>475.16</ele>
        <time>2021-08-24T07:51:20Z</time>
      </trkpt>
      <trkpt lat="47.71664" lon="5.10256">
        <ele>475.04</ele>
        <time>2021-08-24T07:51:25Z</time>
      </trkpt>
      <trkpt lat="47.71677" lon="5.10237">
        <ele>474.2</ele>
        <time>2021-08-24T07:51:40Z</time>
      </trkpt>
      <trkpt lat="47.7169" lon="5.10214">
        <ele>473.93</ele>
        <time>2021-08-24T07:51:57Z</time>
      </trkpt>
      <trkpt lat="47.717" lon="5.10196">
        <ele>473.32</ele>
        <time>2021-08-24T07:52:10Z</time>
      </trkpt>
      <trkpt lat="47.71701" lon="5.10195">
        <ele>472.96</ele>
        <time>2021-08-24T07:52:11Z</time>
      </trkpt>
      <trkpt lat="47.7171" lon="5.10182">
        <ele>472.2</ele>
        <time>2021-08-24T07:52:26Z</time>
      </trkpt>
      <trkpt lat="47.71717" lon="5.10174">
        <ele>472.14</ele>
        <time>2021-08-24T07:52:39Z</time>
      </trkpt>
      <trkpt lat="47.71729" lon="5.10166">
        <ele>471.57</ele>
        <time>2021-08-24T07:52:52Z</time>
      </trkpt>
      <trkpt lat="47.7174" lon="5.10159">
        <ele>471.07</ele>
        <time>2021-08-24T07:53:05Z</time>
      </trkpt>
      <trkpt lat="47.71752" lon="5.10149">
        <ele>470.35</ele>
        <time>2021-08-24T07:53:19Z</time>
      </trkpt>
      <trkpt lat="47.71759" lon="5.10143">
        <ele>470.07</ele>
        <time>2021-08-24T07:53:31Z</time>
      </trkpt>
      <trkpt lat="47.7176" lon="5.10142">
        <ele>470.3</ele>
        <time>2021-08-24T07:53:35Z</time>
      </trkpt>
      <trkpt lat="47.71777" lon="5.10138">
        <ele>469.42</ele>
        <time>2021-08-24T07:53:51Z</time>
      </trkpt>
      <trkpt lat="47.71785" lon="5.10135">
        <ele>469.1</ele>
        <time>2021-08-24T07:53:58Z</time>
      </trkpt>
      <trkpt lat="47.71804" lon="5.1013">
        <ele>468.55</ele>
        <time>2021-08-24T07:54:15Z</time>
      </trkpt>
      <trkpt lat="47.71814" lon="5.10127">
        <ele>468.21</ele>
        <time>2021-08-24T07:54:24Z</time>
      </trkpt>
      <trkpt lat="47.7183" lon="5.1012">
        <ele>467.09</ele>
        <time>2021-08-24T07:54:40Z</time>
      </trkpt>
      <trkpt lat="47.71833" lon="5.10124">
        <ele>467.07</ele>
        <time>2021-08-24T07:54:48Z</time>
      </trkpt>
      <trkpt lat="47.71844" lon="5.10141">
        <ele>468.64</ele>
        <time>2021-08-24T07:55:04Z</time>
      </trkpt>
      <trkpt lat="47.71845" lon="5.10137">
        <ele>467.88</ele>
        <time>2021-08-24T07:55:21Z</time>
      </trkpt>
      <trkpt lat="47.71832" lon="5.10117">
        <ele>467.23</ele>
        <time>2021-08-24T07:55:36Z</time>
      </trkpt>
      <trkpt lat="47.71839" lon="5.10112">
        <ele>466.29</ele>
        <time>2021-08-24T07:55:48Z</time>
      </trkpt>
      <trkpt lat="47.71846" lon="5.10101">
        <ele>464.81</ele>
        <time>2021-08-24T07:56:03Z</time>
      </trkpt>
      <trkpt lat="47.7185" lon="5.10083">
        <ele>464.91</ele>
        <time>2021-08-24T07:56:15Z</time>
      </trkpt>
      <trkpt lat="47.71854" lon="5.10069">
        <ele>465.22</ele>
        <time>2021-08-24T07:56:28Z</time>
      </trkpt>
      <trkpt lat="47.7186" lon="5.10057">
        <ele>465.2</ele>
        <time>2021-08-24T07:56:40Z</time>
      </trkpt>
      <trkpt lat="47.71872" lon="5.10053">
        <ele>464.34</ele>
        <time>2021-08-24T07:56:53Z</time>
      </trkpt>
      <trkpt lat="47.71883" lon="5.10051">
        <ele>463.28</ele>
        <time>2021-08-24T07:57:05Z</time>
      </trkpt>
      <trkpt lat="47.71889" lon="5.10051">
        <ele>462.81</ele>
        <time>2021-08-24T07:57:12Z</time>
      </trkpt>
      <trkpt lat="47.71895" lon="5.10051">
        <ele>461.53</ele>
        <time>2021-08-24T07:57:20Z</time>
      </trkpt>
      <trkpt lat="47.71909" lon="5.10053">
        <ele>460.5</ele>
        <time>2021-08-24T07:57:36Z</time>
      </trkpt>
      <trkpt lat="47.71912" lon="5.10053">
        <ele>460.32</ele>
        <time>2021-08-24T07:58:12Z</time>
      </trkpt>
      <trkpt lat="47.71914" lon="5.10057">
        <ele>460.39</ele>
        <time>2021-08-24T07:58:56Z</time>
      </trkpt>
      <trkpt lat="47.71914" lon="5.10058">
        <ele>458.2</ele>
        <time>2021-08-24T07:59:06Z</time>
      </trkpt>
      <trkpt lat="47.71914" lon="5.10058">
        <ele>460.06</ele>
        <time>2021-08-24T07:59:11Z</time>
      </trkpt>
      <trkpt lat="47.71918" lon="5.10055">
        <ele>459.59</ele>
        <time>2021-08-24T07:59:18Z</time>
      </trkpt>
      <trkpt lat="47.71924" lon="5.10064">
        <ele>458.97</ele>
        <time>2021-08-24T07:59:31Z</time>
      </trkpt>
      <trkpt lat="47.71928" lon="5.10065">
        <ele>458.58</ele>
        <time>2021-08-24T07:59:35Z</time>
      </trkpt>
      <trkpt lat="47.71942" lon="5.1007">
        <ele>456.87</ele>
        <time>2021-08-24T07:59:51Z</time>
      </trkpt>
      <trkpt lat="47.71943" lon="5.10071">
        <ele>456.4</ele>
        <time>2021-08-24T07:59:58Z</time>
      </trkpt>
      <trkpt lat="47.71956" lon="5.10087">
        <ele>455.07</ele>
        <time>2021-08-24T08:00:13Z</time>
      </trkpt>
      <trkpt lat="47.71968" lon="5.10095">
        <ele>453.57</ele>
        <time>2021-08-24T08:00:26Z</time>
      </trkpt>
      <trkpt lat="47.71969" lon="5.10093">
        <ele>453.5</ele>
        <time>2021-08-24T08:00:29Z</time>
      </trkpt>
      <trkpt lat="47.71978" lon="5.10088">
        <ele>451.96</ele>
        <time>2021-08-24T08:00:38Z</time>
      </trkpt>
      <trkpt lat="47.71985" lon="5.10091">
        <ele>450.62</ele>
        <time>2021-08-24T08:00:50Z</time>
      </trkpt>
      <trkpt lat="47.71987" lon="5.10088">
        <ele>446.53</ele>
        <time>2021-08-24T08:01:04Z</time>
      </trkpt>
      <trkpt lat="47.71987" lon="5.10089">
        <ele>452.08</ele>
        <time>2021-08-24T08:01:05Z</time>
      </trkpt>
      <trkpt lat="47.71987" lon="5.1009">
        <ele>450.42</ele>
        <time>2021-08-24T08:01:08Z</time>
      </trkpt>
      <trkpt lat="47.71998" lon="5.10094">
        <ele>448.99</ele>
        <time>2021-08-24T08:01:23Z</time>
      </trkpt>
      <trkpt lat="47.72007" lon="5.10099">
        <ele>447.62</ele>
        <time>2021-08-24T08:01:36Z</time>
      </trkpt>
      <trkpt lat="47.72013" lon="5.10103">
        <ele>446.34</ele>
        <time>2021-08-24T08:01:48Z</time>
      </trkpt>
      <trkpt lat="47.72017" lon="5.10106">
        <ele>445.44</ele>
        <time>2021-08-24T08:02:03Z</time>
      </trkpt>
      <trkpt lat="47.72028" lon="5.10115">
        <ele>443.38</ele>
        <time>2021-08-24T08:02:18Z</time>
      </trkpt>
      <trkpt lat="47.72031" lon="5.10119">
        <ele>442.45</ele>
        <time>2021-08-24T08:02:27Z</time>
      </trkpt>
      <trkpt lat="47.72038" lon="5.10131">
        <ele>441.65</ele>
        <time>2021-08-24T08:02:40Z</time>
      </trkpt>
      <trkpt lat="47.72044" lon="5.10134">
        <ele>440.58</ele>
        <time>2021-08-24T08:02:51Z</time>
      </trkpt>
      <trkpt lat="47.72047" lon="5.10136">
        <ele>440.42</ele>
        <time>2021-08-24T08:02:54Z</time>
      </trkpt>
      <trkpt lat="47.72057" lon="5.1014">
        <ele>438.92</ele>
        <time>2021-08-24T08:03:05Z</time>
      </trkpt>
      <trkpt lat="47.72065" lon="5.10146">
        <ele>437.76</ele>
        <time>2021-08-24T08:03:12Z</time>
      </trkpt>
      <trkpt lat="47.7207" lon="5.10147">
        <ele>437.31</ele>
        <time>2021-08-24T08:03:16Z</time>
      </trkpt>
      <trkpt lat="47.72078" lon="5.1015">
        <ele>436.3</ele>
        <time>2021-08-24T08:03:26Z</time>
      </trkpt>
      <trkpt lat="47.72093" lon="5.10159">
        <ele>434.27</ele>
        <time>2021-08-24T08:03:41Z</time>
      </trkpt>
      <trkpt lat="47.72103" lon="5.10165">
        <ele>433.32</ele>
        <time>2021-08-24T08:03:56Z</time>
      </trkpt>
      <trkpt lat="47.72117" lon="5.10172">
        <ele>432.16</ele>
        <time>2021-08-24T08:04:17Z</time>
      </trkpt>
      <trkpt lat="47.72119" lon="5.10173">
        <ele>431.77</ele>
        <time>2021-08-24T08:04:21Z</time>
      </trkpt>
      <trkpt lat="47.72131" lon="5.10178">
        <ele>430.8</ele>
        <time>2021-08-24T08:04:34Z</time>
      </trkpt>
      <trkpt lat="47.72132" lon="5.10178">
        <ele>430.46</ele>
        <time>2021-08-24T08:04:39Z</time>
      </trkpt>
      <trkpt lat="47.72138" lon="5.10184">
        <ele>430.16</ele>
        <time>2021-08-24T08:04:52Z</time>
      </trkpt>
      <trkpt lat="47.72143" lon="5.10185">
        <ele>429.83</ele>
        <time>2021-08-24T08:05:36Z</time>
      </trkpt>
      <trkpt lat="47.72154" lon="5.1019">
        <ele>428.43</ele>
        <time>2021-08-24T08:05:51Z</time>
      </trkpt>
      <trkpt lat="47.72163" lon="5.10194">
        <ele>427.34</ele>
        <time>2021-08-24T08:06:03Z</time>
      </trkpt>
      <trkpt lat="47.72169" lon="5.10204">
        <ele>427.15</ele>
        <time>2021-08-24T08:06:15Z</time>
      </trkpt>
      <trkpt lat="47.72174" lon="5.1021">
        <ele>426.17</ele>
        <time>2021-08-24T08:06:30Z</time>
      </trkpt>
      <trkpt lat="47.72173" lon="5.10216">
        <ele>425.8</ele>
        <time>2021-08-24T08:06:45Z</time>
      </trkpt>
      <trkpt lat="47.72177" lon="5.10219">
        <ele>425.25</ele>
        <time>2021-08-24T08:06:50Z</time>
      </trkpt>
      <trkpt lat="47.72185" lon="5.10226">
        <ele>424.85</ele>
        <time>2021-08-24T08:07:03Z</time>
      </trkpt>
      <trkpt lat="47.72186" lon="5.10226">
        <ele>424.57</ele>
        <time>2021-08-24T08:07:05Z</time>
      </trkpt>
      <trkpt lat="47.72191" lon="5.1023">
        <ele>423.97</ele>
        <time>2021-08-24T08:07:12Z</time>
      </trkpt>
      <trkpt lat="47.72201" lon="5.10236">
        <ele>423.04</ele>
        <time>2021-08-24T08:07:27Z</time>
      </trkpt>
      <trkpt lat="47.72202" lon="5.10243">
        <ele>422.9</ele>
        <time>2021-08-24T08:07:49Z</time>
      </trkpt>
      <trkpt lat="47.72208" lon="5.10248">
        <ele>422.33</ele>
        <time>2021-08-24T08:08:03Z</time>
      </trkpt>
      <trkpt lat="47.72206" lon="5.10245">
        <ele>422.26</ele>
        <time>2021-08-24T08:08:17Z</time>
      </trkpt>
      <trkpt lat="47.72207" lon="5.10244">
        <ele>421.65</ele>
        <time>2021-08-24T08:08:40Z</time>
      </trkpt>
      <trkpt lat="47.72203" lon="5.10247">
        <ele>421.39</ele>
        <time>2021-08-24T08:09:16Z</time>
      </trkpt>
      <trkpt lat="47.72203" lon="5.10245">
        <ele>421.03</ele>
        <time>2021-08-24T08:10:01Z</time>
      </trkpt>
      <trkpt lat="47.72201" lon="5.1024">
        <ele>421.36</ele>
        <time>2021-08-24T08:10:13Z</time>
      </trkpt>
      <trkpt lat="47.72198" lon="5.10225">
        <ele>422.61</ele>
        <time>2021-08-24T08:10:26Z</time>
      </trkpt>
      <trkpt lat="47.72189" lon="5.10217">
        <ele>423.73</ele>
        <time>2021-08-24T08:10:43Z</time>
      </trkpt>
      <trkpt lat="47.72179" lon="5.10207">
        <ele>424.47</ele>
        <time>2021-08-24T08:10:56Z</time>
      </trkpt>
      <trkpt lat="47.72167" lon="5.10197">
        <ele>426.13</ele>
        <time>2021-08-24T08:11:12Z</time>
      </trkpt>
      <trkpt lat="47.72159" lon="5.10183">
        <ele>427.05</ele>
        <time>2021-08-24T08:11:25Z</time>
      </trkpt>
      <trkpt lat="47.72154" lon="5.10181">
        <ele>427.37</ele>
        <time>2021-08-24T08:11:30Z</time>
      </trkpt>
      <trkpt lat="47.72141" lon="5.10176">
        <ele>428.52</ele>
        <time>2021-08-24T08:11:43Z</time>
      </trkpt>
      <trkpt lat="47.72133" lon="5.10172">
        <ele>429.44</ele>
        <time>2021-08-24T08:11:55Z</time>
      </trkpt>
      <trkpt lat="47.72131" lon="5.10176">
        <ele>429.39</ele>
        <time>2021-08-24T08:12:26Z</time>
      </trkpt>
      <trkpt lat="47.72127" lon="5.10173">
        <ele>429.55</ele>
        <time>2021-08-24T08:12:38Z</time>
      </trkpt>
      <trkpt lat="47.72129" lon="5.10168">
        <ele>429.55</ele>
        <time>2021-08-24T08:12:44Z</time>
      </trkpt>
      <trkpt lat="47.72129" lon="5.1016">
        <ele>429.56</ele>
        <time>2021-08-24T08:13:02Z</time>
      </trkpt>
      <trkpt lat="47.72127" lon="5.10151">
        <ele>430.79</ele>
        <time>2021-08-24T08:13:17Z</time>
      </trkpt>
      <trkpt lat="47.72124" lon="5.10142">
        <ele>432.1</ele>
        <time>2021-08-24T08:13:30Z</time>
      </trkpt>
      <trkpt lat="47.72119" lon="5.10126">
        <ele>434.17</ele>
        <time>2021-08-24T08:13:43Z</time>
      </trkpt>
      <trkpt lat="47.72116" lon="5.10114">
        <ele>436.64</ele>
        <time>2021-08-24T08:13:57Z</time>
      </trkpt>
      <trkpt lat="47.72114" lon="5.10102">
        <ele>440.01</ele>
        <time>2021-08-24T08:14:12Z</time>
      </trkpt>
      <trkpt lat="47.7211" lon="5.10093">
        <ele>441.36</ele>
        <time>2021-08-24T08:14:25Z</time>
      </trkpt>
      <trkpt lat="47.7211" lon="5.10085">
        <ele>442.89</ele>
        <time>2021-08-24T08:14:43Z</time>
      </trkpt>
      <trkpt lat="47.72106" lon="5.10084">
        <ele>442.89</ele>
        <time>2021-08-24T08:15:15Z</time>
      </trkpt>
      <trkpt lat="47.72105" lon="5.10083">
        <ele>442.33</ele>
        <time>2021-08-24T08:15:16Z</time>
      </trkpt>
      <trkpt lat="47.72093" lon="5.10082">
        <ele>441.68</ele>
        <time>2021-08-24T08:15:30Z</time>
      </trkpt>
      <trkpt lat="47.72083" lon="5.1008">
        <ele>443.11</ele>
        <time>2021-08-24T08:15:42Z</time>
      </trkpt>
      <trkpt lat="47.72075" lon="5.10075">
        <ele>444.3</ele>
        <time>2021-08-24T08:15:53Z</time>
      </trkpt>
      <trkpt lat="47.72068" lon="5.1007">
        <ele>445.47</ele>
        <time>2021-08-24T08:16:05Z</time>
      </trkpt>
      <trkpt lat="47.7206" lon="5.10068">
        <ele>446.12</ele>
        <time>2021-08-24T08:16:15Z</time>
      </trkpt>
      <trkpt lat="47.72049" lon="5.10064">
        <ele>447.82</ele>
        <time>2021-08-24T08:16:29Z</time>
      </trkpt>
      <trkpt lat="47.72047" lon="5.10063">
        <ele>448.88</ele>
        <time>2021-08-24T08:16:33Z</time>
      </trkpt>
      <trkpt lat="47.7203" lon="5.10061">
        <ele>449.63</ele>
        <time>2021-08-24T08:16:49Z</time>
      </trkpt>
      <trkpt lat="47.7202" lon="5.1006">
        <ele>450.14</ele>
        <time>2021-08-24T08:16:59Z</time>
      </trkpt>
      <trkpt lat="47.7201" lon="5.10058">
        <ele>450.2</ele>
        <time>2021-08-24T08:17:10Z</time>
      </trkpt>
      <trkpt lat="47.71995" lon="5.10057">
        <ele>451.35</ele>
        <time>2021-08-24T08:17:26Z</time>
      </trkpt>
      <trkpt lat="47.71982" lon="5.10057">
        <ele>452.18</ele>
        <time>2021-08-24T08:17:39Z</time>
      </trkpt>
      <trkpt lat="47.71978" lon="5.10056">
        <ele>452.63</ele>
        <time>2021-08-24T08:17:44Z</time>
      </trkpt>
      <trkpt lat="47.71964" lon="5.10055">
        <ele>453.45</ele>
        <time>2021-08-24T08:17:58Z</time>
      </trkpt>
      <trkpt lat="47.71952" lon="5.10055">
        <ele>454.71</ele>
        <time>2021-08-24T08:18:10Z</time>
      </trkpt>
      <trkpt lat="47.71946" lon="5.10053">
        <ele>455.23</ele>
        <time>2021-08-24T08:18:17Z</time>
      </trkpt>
      <trkpt lat="47.71932" lon="5.10048">
        <ele>456.62</ele>
        <time>2021-08-24T08:18:30Z</time>
      </trkpt>
      <trkpt lat="47.71917" lon="5.10045">
        <ele>457.59</ele>
        <time>2021-08-24T08:18:45Z</time>
      </trkpt>
      <trkpt lat="47.71907" lon="5.10046">
        <ele>458.33</ele>
        <time>2021-08-24T08:18:56Z</time>
      </trkpt>
      <trkpt lat="47.71896" lon="5.10047">
        <ele>459.54</ele>
        <time>2021-08-24T08:19:08Z</time>
      </trkpt>
      <trkpt lat="47.71889" lon="5.10051">
        <ele>460.64</ele>
        <time>2021-08-24T08:19:28Z</time>
      </trkpt>
      <trkpt lat="47.71887" lon="5.10049">
        <ele>459.6</ele>
        <time>2021-08-24T08:19:31Z</time>
      </trkpt>
      <trkpt lat="47.71884" lon="5.10048">
        <ele>461.02</ele>
        <time>2021-08-24T08:19:33Z</time>
      </trkpt>
      <trkpt lat="47.71866" lon="5.10052">
        <ele>461.95</ele>
        <time>2021-08-24T08:19:48Z</time>
      </trkpt>
      <trkpt lat="47.71857" lon="5.10059">
        <ele>463.3</ele>
        <time>2021-08-24T08:19:58Z</time>
      </trkpt>
      <trkpt lat="47.71852" lon="5.10076">
        <ele>463.21</ele>
        <time>2021-08-24T08:20:09Z</time>
      </trkpt>
      <trkpt lat="47.71845" lon="5.10094">
        <ele>463.04</ele>
        <time>2021-08-24T08:20:22Z</time>
      </trkpt>
      <trkpt lat="47.71842" lon="5.10103">
        <ele>463.68</ele>
        <time>2021-08-24T08:20:36Z</time>
      </trkpt>
      <trkpt lat="47.71837" lon="5.10105">
        <ele>463.98</ele>
        <time>2021-08-24T08:20:40Z</time>
      </trkpt>
      <trkpt lat="47.71834" lon="5.10128">
        <ele>465.01</ele>
        <time>2021-08-24T08:20:57Z</time>
      </trkpt>
      <trkpt lat="47.71822" lon="5.10118">
        <ele>465.21</ele>
        <time>2021-08-24T08:21:12Z</time>
      </trkpt>
      <trkpt lat="47.71802" lon="5.10122">
        <ele>466.26</ele>
        <time>2021-08-24T08:21:27Z</time>
      </trkpt>
      <trkpt lat="47.71787" lon="5.10125">
        <ele>466.68</ele>
        <time>2021-08-24T08:21:40Z</time>
      </trkpt>
      <trkpt lat="47.71768" lon="5.10132">
        <ele>467.46</ele>
        <time>2021-08-24T08:21:56Z</time>
      </trkpt>
      <trkpt lat="47.71761" lon="5.10135">
        <ele>467.61</ele>
        <time>2021-08-24T08:22:02Z</time>
      </trkpt>
      <trkpt lat="47.71756" lon="5.10138">
        <ele>467.62</ele>
        <time>2021-08-24T08:22:06Z</time>
      </trkpt>
      <trkpt lat="47.71745" lon="5.10147">
        <ele>467.59</ele>
        <time>2021-08-24T08:22:17Z</time>
      </trkpt>
      <trkpt lat="47.71734" lon="5.10158">
        <ele>468.5</ele>
        <time>2021-08-24T08:22:31Z</time>
      </trkpt>
      <trkpt lat="47.71718" lon="5.10171">
        <ele>469.23</ele>
        <time>2021-08-24T08:22:49Z</time>
      </trkpt>
      <trkpt lat="47.71707" lon="5.10178">
        <ele>469.42</ele>
        <time>2021-08-24T08:23:04Z</time>
      </trkpt>
      <trkpt lat="47.71697" lon="5.10178">
        <ele>470.07</ele>
        <time>2021-08-24T08:23:18Z</time>
      </trkpt>
      <trkpt lat="47.71692" lon="5.10175">
        <ele>470.07</ele>
        <time>2021-08-24T08:23:35Z</time>
      </trkpt>
      <trkpt lat="47.71698" lon="5.10165">
        <ele>469.8</ele>
        <time>2021-08-24T08:23:55Z</time>
      </trkpt>
      <trkpt lat="47.71704" lon="5.10156">
        <ele>469.4</ele>
        <time>2021-08-24T08:24:02Z</time>
      </trkpt>
      <trkpt lat="47.71705" lon="5.10151">
        <ele>469.53</ele>
        <time>2021-08-24T08:24:05Z</time>
      </trkpt>
      <trkpt lat="47.71713" lon="5.10135">
        <ele>469.39</ele>
        <time>2021-08-24T08:24:17Z</time>
      </trkpt>
      <trkpt lat="47.7172" lon="5.10126">
        <ele>469.35</ele>
        <time>2021-08-24T08:24:25Z</time>
      </trkpt>
      <trkpt lat="47.71725" lon="5.10116">
        <ele>469.24</ele>
        <time>2021-08-24T08:24:33Z</time>
      </trkpt>
      <trkpt lat="47.7173" lon="5.10109">
        <ele>468.9</ele>
        <time>2021-08-24T08:24:40Z</time>
      </trkpt>
      <trkpt lat="47.71732" lon="5.10104">
        <ele>468.69</ele>
        <time>2021-08-24T08:24:43Z</time>
      </trkpt>
      <trkpt lat="47.71744" lon="5.10083">
        <ele>468.57</ele>
        <time>2021-08-24T08:24:59Z</time>
      </trkpt>
      <trkpt lat="47.71745" lon="5.1008">
        <ele>468.74</ele>
        <time>2021-08-24T08:25:01Z</time>
      </trkpt>
      <trkpt lat="47.71755" lon="5.10061">
        <ele>469.22</ele>
        <time>2021-08-24T08:25:15Z</time>
      </trkpt>
      <trkpt lat="47.71765" lon="5.10047">
        <ele>469.47</ele>
        <time>2021-08-24T08:25:27Z</time>
      </trkpt>
      <trkpt lat="47.71776" lon="5.10028">
        <ele>469.87</ele>
        <time>2021-08-24T08:25:42Z</time>
      </trkpt>
      <trkpt lat="47.71784" lon="5.1001">
        <ele>469.98</ele>
        <time>2021-08-24T08:25:56Z</time>
      </trkpt>
      <trkpt lat="47.71789" lon="5.1">
        <ele>469.72</ele>
        <time>2021-08-24T08:26:08Z</time>
      </trkpt>
      <trkpt lat="47.71787" lon="5.0999">
        <ele>469.68</ele>
        <time>2021-08-24T08:26:21Z</time>
      </trkpt>
      <trkpt lat="47.71793" lon="5.09991">
        <ele>469.76</ele>
        <time>2021-08-24T08:26:36Z</time>
      </trkpt>
      <trkpt lat="47.71804" lon="5.09974">
        <ele>470</ele>
        <time>2021-08-24T08:26:51Z</time>
      </trkpt>
      <trkpt lat="47.71813" lon="5.09961">
        <ele>469.55</ele>
        <time>2021-08-24T08:27:04Z</time>
      </trkpt>
      <trkpt lat="47.71822" lon="5.09946">
        <ele>469.56</ele>
        <time>2021-08-24T08:27:17Z</time>
      </trkpt>
      <trkpt lat="47.71829" lon="5.09932">
        <ele>469.93</ele>
        <time>2021-08-24T08:27:29Z</time>
      </trkpt>
      <trkpt lat="47.71836" lon="5.0992">
        <ele>469.5</ele>
        <time>2021-08-24T08:27:41Z</time>
      </trkpt>
      <trkpt lat="47.71841" lon="5.09915">
        <ele>469.74</ele>
        <time>2021-08-24T08:27:46Z</time>
      </trkpt>
      <trkpt lat="47.71849" lon="5.09898">
        <ele>469.63</ele>
        <time>2021-08-24T08:28:01Z</time>
      </trkpt>
      <trkpt lat="47.71851" lon="5.09895">
        <ele>469.48</ele>
        <time>2021-08-24T08:28:04Z</time>
      </trkpt>
      <trkpt lat="47.71854" lon="5.09891">
        <ele>470.01</ele>
        <time>2021-08-24T08:28:18Z</time>
      </trkpt>
      <trkpt lat="47.71848" lon="5.09897">
        <ele>469.75</ele>
        <time>2021-08-24T08:28:29Z</time>
      </trkpt>
      <trkpt lat="47.71849" lon="5.09894">
        <ele>469.9</ele>
        <time>2021-08-24T08:28:48Z</time>
      </trkpt>
      <trkpt lat="47.71853" lon="5.09891">
        <ele>470.01</ele>
        <time>2021-08-24T08:28:52Z</time>
      </trkpt>
      <trkpt lat="47.7186" lon="5.09885">
        <ele>469.44</ele>
        <time>2021-08-24T08:29:08Z</time>
      </trkpt>
      <trkpt lat="47.71866" lon="5.09878">
        <ele>469.62</ele>
        <time>2021-08-24T08:29:19Z</time>
      </trkpt>
      <trkpt lat="47.71876" lon="5.09874">
        <ele>469.28</ele>
        <time>2021-08-24T08:29:58Z</time>
      </trkpt>
      <trkpt lat="47.71885" lon="5.09872">
        <ele>468.88</ele>
        <time>2021-08-24T08:30:12Z</time>
      </trkpt>
      <trkpt lat="47.71892" lon="5.09871">
        <ele>469.44</ele>
        <time>2021-08-24T08:30:33Z</time>
      </trkpt>
      <trkpt lat="47.7189" lon="5.0987">
        <ele>469.13</ele>
        <time>2021-08-24T08:30:46Z</time>
      </trkpt>
      <trkpt lat="47.71879" lon="5.09876">
        <ele>469.14</ele>
        <time>2021-08-24T08:31:02Z</time>
      </trkpt>
      <trkpt lat="47.71876" lon="5.09872">
        <ele>469.3</ele>
        <time>2021-08-24T08:31:17Z</time>
      </trkpt>
      <trkpt lat="47.71874" lon="5.09877">
        <ele>468.9</ele>
        <time>2021-08-24T08:31:34Z</time>
      </trkpt>
      <trkpt lat="47.71875" lon="5.09877">
        <ele>465.85</ele>
        <time>2021-08-24T08:31:36Z</time>
      </trkpt>
      <trkpt lat="47.71875" lon="5.09877">
        <ele>468.89</ele>
        <time>2021-08-24T08:31:37Z</time>
      </trkpt>
      <trkpt lat="47.71876" lon="5.09877">
        <ele>464.98</ele>
        <time>2021-08-24T08:31:39Z</time>
      </trkpt>
      <trkpt lat="47.71876" lon="5.09877">
        <ele>466.42</ele>
        <time>2021-08-24T08:31:40Z</time>
      </trkpt>
      <trkpt lat="47.71877" lon="5.09878">
        <ele>468.49</ele>
        <time>2021-08-24T08:31:44Z</time>
      </trkpt>
      <trkpt lat="47.71877" lon="5.09878">
        <ele>473.48</ele>
        <time>2021-08-24T08:31:46Z</time>
      </trkpt>
      <trkpt lat="47.71877" lon="5.09878">
        <ele>472.11</ele>
        <time>2021-08-24T08:31:47Z</time>
      </trkpt>
      <trkpt lat="47.71877" lon="5.09877">
        <ele>469.06</ele>
        <time>2021-08-24T08:31:50Z</time>
      </trkpt>
      <trkpt lat="47.71879" lon="5.09866">
        <ele>468.88</ele>
        <time>2021-08-24T08:32:17Z</time>
      </trkpt>
      <trkpt lat="47.71886" lon="5.09846">
        <ele>469.08</ele>
        <time>2021-08-24T08:32:32Z</time>
      </trkpt>
      <trkpt lat="47.71893" lon="5.09829">
        <ele>469.58</ele>
        <time>2021-08-24T08:32:46Z</time>
      </trkpt>
      <trkpt lat="47.71903" lon="5.09813">
        <ele>470.58</ele>
        <time>2021-08-24T08:33:01Z</time>
      </trkpt>
      <trkpt lat="47.7191" lon="5.09801">
        <ele>470.2</ele>
        <time>2021-08-24T08:33:14Z</time>
      </trkpt>
      <trkpt lat="47.71916" lon="5.09791">
        <ele>470.45</ele>
        <time>2021-08-24T08:33:22Z</time>
      </trkpt>
      <trkpt lat="47.7192" lon="5.09786">
        <ele>470.27</ele>
        <time>2021-08-24T08:33:26Z</time>
      </trkpt>
      <trkpt lat="47.71929" lon="5.09771">
        <ele>469.97</ele>
        <time>2021-08-24T08:33:39Z</time>
      </trkpt>
      <trkpt lat="47.71939" lon="5.09758">
        <ele>470.28</ele>
        <time>2021-08-24T08:33:51Z</time>
      </trkpt>
      <trkpt lat="47.71944" lon="5.09747">
        <ele>470.13</ele>
        <time>2021-08-24T08:34:05Z</time>
      </trkpt>
      <trkpt lat="47.71939" lon="5.09726">
        <ele>470.73</ele>
        <time>2021-08-24T08:34:20Z</time>
      </trkpt>
      <trkpt lat="47.71938" lon="5.09732">
        <ele>470.11</ele>
        <time>2021-08-24T08:34:30Z</time>
      </trkpt>
      <trkpt lat="47.71941" lon="5.09744">
        <ele>470.38</ele>
        <time>2021-08-24T08:34:38Z</time>
      </trkpt>
      <trkpt lat="47.71949" lon="5.09747">
        <ele>470.59</ele>
        <time>2021-08-24T08:34:53Z</time>
      </trkpt>
      <trkpt lat="47.71953" lon="5.0974">
        <ele>470.16</ele>
        <time>2021-08-24T08:35:00Z</time>
      </trkpt>
      <trkpt lat="47.71956" lon="5.09736">
        <ele>470.9</ele>
        <time>2021-08-24T08:35:05Z</time>
      </trkpt>
      <trkpt lat="47.71963" lon="5.09725">
        <ele>470.67</ele>
        <time>2021-08-24T08:35:14Z</time>
      </trkpt>
      <trkpt lat="47.71972" lon="5.09711">
        <ele>470.75</ele>
        <time>2021-08-24T08:35:28Z</time>
      </trkpt>
      <trkpt lat="47.71974" lon="5.09709">
        <ele>470.78</ele>
        <time>2021-08-24T08:35:31Z</time>
      </trkpt>
      <trkpt lat="47.71979" lon="5.09694">
        <ele>470.92</ele>
        <time>2021-08-24T08:35:43Z</time>
      </trkpt>
      <trkpt lat="47.71987" lon="5.09678">
        <ele>470.82</ele>
        <time>2021-08-24T08:35:57Z</time>
      </trkpt>
      <trkpt lat="47.71989" lon="5.09675">
        <ele>470.61</ele>
        <time>2021-08-24T08:36:01Z</time>
      </trkpt>
      <trkpt lat="47.71998" lon="5.09662">
        <ele>470.55</ele>
        <time>2021-08-24T08:36:14Z</time>
      </trkpt>
      <trkpt lat="47.72" lon="5.09657">
        <ele>470.38</ele>
        <time>2021-08-24T08:36:18Z</time>
      </trkpt>
      <trkpt lat="47.72009" lon="5.09639">
        <ele>469.99</ele>
        <time>2021-08-24T08:36:32Z</time>
      </trkpt>
      <trkpt lat="47.72016" lon="5.09621">
        <ele>468.85</ele>
        <time>2021-08-24T08:36:47Z</time>
      </trkpt>
      <trkpt lat="47.72023" lon="5.0961">
        <ele>467.82</ele>
        <time>2021-08-24T08:36:59Z</time>
      </trkpt>
      <trkpt lat="47.72031" lon="5.09591">
        <ele>468.04</ele>
        <time>2021-08-24T08:37:14Z</time>
      </trkpt>
      <trkpt lat="47.72041" lon="5.09567">
        <ele>467.44</ele>
        <time>2021-08-24T08:37:30Z</time>
      </trkpt>
      <trkpt lat="47.7205" lon="5.09547">
        <ele>466.82</ele>
        <time>2021-08-24T08:37:45Z</time>
      </trkpt>
      <trkpt lat="47.72053" lon="5.09543">
        <ele>466.83</ele>
        <time>2021-08-24T08:37:49Z</time>
      </trkpt>
      <trkpt lat="47.72059" lon="5.09525">
        <ele>466.3</ele>
        <time>2021-08-24T08:38:03Z</time>
      </trkpt>
      <trkpt lat="47.72063" lon="5.09524">
        <ele>466.22</ele>
        <time>2021-08-24T08:38:25Z</time>
      </trkpt>
      <trkpt lat="47.72067" lon="5.09524">
        <ele>466.89</ele>
        <time>2021-08-24T08:38:44Z</time>
      </trkpt>
      <trkpt lat="47.72069" lon="5.09528">
        <ele>467.01</ele>
        <time>2021-08-24T08:38:46Z</time>
      </trkpt>
      <trkpt lat="47.72078" lon="5.09545">
        <ele>466.09</ele>
        <time>2021-08-24T08:38:58Z</time>
      </trkpt>
      <trkpt lat="47.72082" lon="5.09552">
        <ele>465.66</ele>
        <time>2021-08-24T08:39:05Z</time>
      </trkpt>
      <trkpt lat="47.72082" lon="5.09549">
        <ele>465.8</ele>
        <time>2021-08-24T08:39:07Z</time>
      </trkpt>
      <trkpt lat="47.7208" lon="5.09544">
        <ele>465.91</ele>
        <time>2021-08-24T08:39:10Z</time>
      </trkpt>
      <trkpt lat="47.72071" lon="5.09526">
        <ele>466.19</ele>
        <time>2021-08-24T08:39:23Z</time>
      </trkpt>
      <trkpt lat="47.72061" lon="5.0951">
        <ele>465.75</ele>
        <time>2021-08-24T08:39:36Z</time>
      </trkpt>
      <trkpt lat="47.72061" lon="5.09509">
        <ele>465.81</ele>
        <time>2021-08-24T08:39:37Z</time>
      </trkpt>
      <trkpt lat="47.72056" lon="5.09505">
        <ele>465.71</ele>
        <time>2021-08-24T08:39:41Z</time>
      </trkpt>
      <trkpt lat="47.72053" lon="5.09503">
        <ele>466.06</ele>
        <time>2021-08-24T08:39:44Z</time>
      </trkpt>
      <trkpt lat="47.72048" lon="5.09496">
        <ele>466.4</ele>
        <time>2021-08-24T08:39:50Z</time>
      </trkpt>
      <trkpt lat="47.72045" lon="5.09494">
        <ele>466.5</ele>
        <time>2021-08-24T08:39:53Z</time>
      </trkpt>
      <trkpt lat="47.72026" lon="5.09477">
        <ele>465.85</ele>
        <time>2021-08-24T08:40:11Z</time>
      </trkpt>
      <trkpt lat="47.7202" lon="5.09473">
        <ele>466.07</ele>
        <time>2021-08-24T08:40:23Z</time>
      </trkpt>
      <trkpt lat="47.7202" lon="5.09473">
        <ele>466.08</ele>
        <time>2021-08-24T08:40:24Z</time>
      </trkpt>
      <trkpt lat="47.72024" lon="5.09479">
        <ele>465.93</ele>
        <time>2021-08-24T08:40:28Z</time>
      </trkpt>
      <trkpt lat="47.72026" lon="5.09482">
        <ele>466.06</ele>
        <time>2021-08-24T08:40:30Z</time>
      </trkpt>
      <trkpt lat="47.7204" lon="5.09497">
        <ele>466.17</ele>
        <time>2021-08-24T08:40:44Z</time>
      </trkpt>
      <trkpt lat="47.72053" lon="5.09513">
        <ele>465.83</ele>
        <time>2021-08-24T08:40:59Z</time>
      </trkpt>
      <trkpt lat="47.72067" lon="5.09525">
        <ele>465.94</ele>
        <time>2021-08-24T08:41:13Z</time>
      </trkpt>
      <trkpt lat="47.72068" lon="5.09524">
        <ele>465.82</ele>
        <time>2021-08-24T08:41:21Z</time>
      </trkpt>
      <trkpt lat="47.7207" lon="5.09523">
        <ele>465.73</ele>
        <time>2021-08-24T08:41:37Z</time>
      </trkpt>
      <trkpt lat="47.72075" lon="5.09517">
        <ele>465.56</ele>
        <time>2021-08-24T08:41:50Z</time>
      </trkpt>
      <trkpt lat="47.72078" lon="5.09505">
        <ele>465.73</ele>
        <time>2021-08-24T08:42:06Z</time>
      </trkpt>
      <trkpt lat="47.72085" lon="5.0949">
        <ele>465.16</ele>
        <time>2021-08-24T08:42:22Z</time>
      </trkpt>
      <trkpt lat="47.72089" lon="5.09483">
        <ele>464.72</ele>
        <time>2021-08-24T08:42:34Z</time>
      </trkpt>
      <trkpt lat="47.72096" lon="5.09474">
        <ele>464.11</ele>
        <time>2021-08-24T08:42:43Z</time>
      </trkpt>
      <trkpt lat="47.72096" lon="5.0946">
        <ele>463.91</ele>
        <time>2021-08-24T08:42:55Z</time>
      </trkpt>
      <trkpt lat="47.72095" lon="5.09453">
        <ele>464.47</ele>
        <time>2021-08-24T08:43:01Z</time>
      </trkpt>
      <trkpt lat="47.72093" lon="5.09433">
        <ele>464.11</ele>
        <time>2021-08-24T08:43:17Z</time>
      </trkpt>
      <trkpt lat="47.7209" lon="5.09419">
        <ele>463.89</ele>
        <time>2021-08-24T08:43:32Z</time>
      </trkpt>
      <trkpt lat="47.7209" lon="5.0943">
        <ele>464.29</ele>
        <time>2021-08-24T08:43:43Z</time>
      </trkpt>
      <trkpt lat="47.72092" lon="5.09443">
        <ele>464.67</ele>
        <time>2021-08-24T08:43:52Z</time>
      </trkpt>
      <trkpt lat="47.72097" lon="5.09466">
        <ele>464.33</ele>
        <time>2021-08-24T08:44:08Z</time>
      </trkpt>
      <trkpt lat="47.72101" lon="5.09471">
        <ele>464.2</ele>
        <time>2021-08-24T08:44:21Z</time>
      </trkpt>
      <trkpt lat="47.72104" lon="5.09464">
        <ele>464.44</ele>
        <time>2021-08-24T08:44:26Z</time>
      </trkpt>
      <trkpt lat="47.7211" lon="5.09448">
        <ele>465.1</ele>
        <time>2021-08-24T08:44:41Z</time>
      </trkpt>
      <trkpt lat="47.72115" lon="5.09436">
        <ele>464.22</ele>
        <time>2021-08-24T08:44:54Z</time>
      </trkpt>
      <trkpt lat="47.72122" lon="5.0942">
        <ele>464.03</ele>
        <time>2021-08-24T08:45:10Z</time>
      </trkpt>
      <trkpt lat="47.72129" lon="5.09406">
        <ele>464.5</ele>
        <time>2021-08-24T08:45:24Z</time>
      </trkpt>
      <trkpt lat="47.72141" lon="5.09391">
        <ele>464.66</ele>
        <time>2021-08-24T08:45:42Z</time>
      </trkpt>
      <trkpt lat="47.72148" lon="5.09382">
        <ele>464.63</ele>
        <time>2021-08-24T08:45:57Z</time>
      </trkpt>
      <trkpt lat="47.72149" lon="5.09372">
        <ele>465.27</ele>
        <time>2021-08-24T08:46:11Z</time>
      </trkpt>
      <trkpt lat="47.72153" lon="5.09355">
        <ele>464.5</ele>
        <time>2021-08-24T08:46:25Z</time>
      </trkpt>
      <trkpt lat="47.72158" lon="5.09344">
        <ele>464.61</ele>
        <time>2021-08-24T08:46:41Z</time>
      </trkpt>
      <trkpt lat="47.72161" lon="5.09333">
        <ele>464.8</ele>
        <time>2021-08-24T08:46:57Z</time>
      </trkpt>
      <trkpt lat="47.72165" lon="5.09321">
        <ele>463.95</ele>
        <time>2021-08-24T08:47:47Z</time>
      </trkpt>
      <trkpt lat="47.72167" lon="5.09313">
        <ele>463.87</ele>
        <time>2021-08-24T08:47:55Z</time>
      </trkpt>
      <trkpt lat="47.72168" lon="5.093">
        <ele>464.43</ele>
        <time>2021-08-24T08:48:10Z</time>
      </trkpt>
      <trkpt lat="47.72173" lon="5.09284">
        <ele>464.46</ele>
        <time>2021-08-24T08:48:23Z</time>
      </trkpt>
      <trkpt lat="47.7218" lon="5.09267">
        <ele>464.55</ele>
        <time>2021-08-24T08:48:38Z</time>
      </trkpt>
      <trkpt lat="47.72188" lon="5.09253">
        <ele>463.95</ele>
        <time>2021-08-24T08:48:55Z</time>
      </trkpt>
      <trkpt lat="47.72191" lon="5.09241">
        <ele>463.75</ele>
        <time>2021-08-24T08:49:10Z</time>
      </trkpt>
      <trkpt lat="47.72195" lon="5.09231">
        <ele>464.77</ele>
        <time>2021-08-24T08:49:32Z</time>
      </trkpt>
      <trkpt lat="47.72204" lon="5.09216">
        <ele>464.25</ele>
        <time>2021-08-24T08:49:52Z</time>
      </trkpt>
      <trkpt lat="47.7221" lon="5.09199">
        <ele>463.63</ele>
        <time>2021-08-24T08:50:07Z</time>
      </trkpt>
      <trkpt lat="47.72215" lon="5.09183">
        <ele>463.74</ele>
        <time>2021-08-24T08:50:21Z</time>
      </trkpt>
      <trkpt lat="47.72219" lon="5.0917">
        <ele>464.17</ele>
        <time>2021-08-24T08:50:34Z</time>
      </trkpt>
      <trkpt lat="47.72222" lon="5.09163">
        <ele>464.03</ele>
        <time>2021-08-24T08:50:53Z</time>
      </trkpt>
      <trkpt lat="47.72231" lon="5.09155">
        <ele>463.74</ele>
        <time>2021-08-24T08:51:04Z</time>
      </trkpt>
      <trkpt lat="47.72239" lon="5.09141">
        <ele>463.53</ele>
        <time>2021-08-24T08:51:17Z</time>
      </trkpt>
      <trkpt lat="47.72249" lon="5.09129">
        <ele>463.66</ele>
        <time>2021-08-24T08:51:33Z</time>
      </trkpt>
      <trkpt lat="47.72256" lon="5.0912">
        <ele>463.24</ele>
        <time>2021-08-24T08:51:45Z</time>
      </trkpt>
      <trkpt lat="47.72266" lon="5.09112">
        <ele>463.85</ele>
        <time>2021-08-24T08:51:59Z</time>
      </trkpt>
      <trkpt lat="47.72272" lon="5.091">
        <ele>462.96</ele>
        <time>2021-08-24T08:52:12Z</time>
      </trkpt>
      <trkpt lat="47.72278" lon="5.09092">
        <ele>463.65</ele>
        <time>2021-08-24T08:52:29Z</time>
      </trkpt>
      <trkpt lat="47.72292" lon="5.09091">
        <ele>463.6</ele>
        <time>2021-08-24T08:52:44Z</time>
      </trkpt>
      <trkpt lat="47.72296" lon="5.09087">
        <ele>463.59</ele>
        <time>2021-08-24T08:52:57Z</time>
      </trkpt>
      <trkpt lat="47.72293" lon="5.0909">
        <ele>463.16</ele>
        <time>2021-08-24T08:53:03Z</time>
      </trkpt>
      <trkpt lat="47.72282" lon="5.09089">
        <ele>463.03</ele>
        <time>2021-08-24T08:53:14Z</time>
      </trkpt>
      <trkpt lat="47.72269" lon="5.09088">
        <ele>462.3</ele>
        <time>2021-08-24T08:53:30Z</time>
      </trkpt>
      <trkpt lat="47.72256" lon="5.09087">
        <ele>461.36</ele>
        <time>2021-08-24T08:53:43Z</time>
      </trkpt>
      <trkpt lat="47.72248" lon="5.09086">
        <ele>461.8</ele>
        <time>2021-08-24T08:53:58Z</time>
      </trkpt>
      <trkpt lat="47.72236" lon="5.09082">
        <ele>460.18</ele>
        <time>2021-08-24T08:54:12Z</time>
      </trkpt>
      <trkpt lat="47.7223" lon="5.09088">
        <ele>460.51</ele>
        <time>2021-08-24T08:54:26Z</time>
      </trkpt>
      <trkpt lat="47.72241" lon="5.09091">
        <ele>462.5</ele>
        <time>2021-08-24T08:54:41Z</time>
      </trkpt>
      <trkpt lat="47.72251" lon="5.09091">
        <ele>462.26</ele>
        <time>2021-08-24T08:54:51Z</time>
      </trkpt>
      <trkpt lat="47.72266" lon="5.09087">
        <ele>462.77</ele>
        <time>2021-08-24T08:55:06Z</time>
      </trkpt>
      <trkpt lat="47.72268" lon="5.09075">
        <ele>462.54</ele>
        <time>2021-08-24T08:55:14Z</time>
      </trkpt>
      <trkpt lat="47.72265" lon="5.09056">
        <ele>461.51</ele>
        <time>2021-08-24T08:55:30Z</time>
      </trkpt>
      <trkpt lat="47.72265" lon="5.09038">
        <ele>461.69</ele>
        <time>2021-08-24T08:55:44Z</time>
      </trkpt>
      <trkpt lat="47.72261" lon="5.09025">
        <ele>462.13</ele>
        <time>2021-08-24T08:55:56Z</time>
      </trkpt>
      <trkpt lat="47.72258" lon="5.0901">
        <ele>462.13</ele>
        <time>2021-08-24T08:56:10Z</time>
      </trkpt>
      <trkpt lat="47.72251" lon="5.08983">
        <ele>462.09</ele>
        <time>2021-08-24T08:56:29Z</time>
      </trkpt>
      <trkpt lat="47.72242" lon="5.08975">
        <ele>462.82</ele>
        <time>2021-08-24T08:56:43Z</time>
      </trkpt>
      <trkpt lat="47.72234" lon="5.08977">
        <ele>462.72</ele>
        <time>2021-08-24T08:57:01Z</time>
      </trkpt>
      <trkpt lat="47.72236" lon="5.08979">
        <ele>462.74</ele>
        <time>2021-08-24T08:57:04Z</time>
      </trkpt>
      <trkpt lat="47.72239" lon="5.08979">
        <ele>462.69</ele>
        <time>2021-08-24T08:57:06Z</time>
      </trkpt>
      <trkpt lat="47.72248" lon="5.08966">
        <ele>464.28</ele>
        <time>2021-08-24T08:57:21Z</time>
      </trkpt>
      <trkpt lat="47.72247" lon="5.08956">
        <ele>464.79</ele>
        <time>2021-08-24T08:57:34Z</time>
      </trkpt>
      <trkpt lat="47.72247" lon="5.08963">
        <ele>464.25</ele>
        <time>2021-08-24T08:57:45Z</time>
      </trkpt>
      <trkpt lat="47.72248" lon="5.08971">
        <ele>463.34</ele>
        <time>2021-08-24T08:57:57Z</time>
      </trkpt>
      <trkpt lat="47.72243" lon="5.08979">
        <ele>462.77</ele>
        <time>2021-08-24T08:58:26Z</time>
      </trkpt>
      <trkpt lat="47.72246" lon="5.08987">
        <ele>462.06</ele>
        <time>2021-08-24T08:58:53Z</time>
      </trkpt>
      <trkpt lat="47.7225" lon="5.08993">
        <ele>461.64</ele>
        <time>2021-08-24T08:58:58Z</time>
      </trkpt>
      <trkpt lat="47.72255" lon="5.09011">
        <ele>461.65</ele>
        <time>2021-08-24T08:59:13Z</time>
      </trkpt>
      <trkpt lat="47.72259" lon="5.09025">
        <ele>461.81</ele>
        <time>2021-08-24T08:59:25Z</time>
      </trkpt>
      <trkpt lat="47.72263" lon="5.09046">
        <ele>461.79</ele>
        <time>2021-08-24T08:59:40Z</time>
      </trkpt>
      <trkpt lat="47.72273" lon="5.09048">
        <ele>462.34</ele>
        <time>2021-08-24T08:59:54Z</time>
      </trkpt>
      <trkpt lat="47.72281" lon="5.09049">
        <ele>462.47</ele>
        <time>2021-08-24T09:00:07Z</time>
      </trkpt>
      <trkpt lat="47.72287" lon="5.09046">
        <ele>463.78</ele>
        <time>2021-08-24T09:00:20Z</time>
      </trkpt>
      <trkpt lat="47.72296" lon="5.09045">
        <ele>463.43</ele>
        <time>2021-08-24T09:00:35Z</time>
      </trkpt>
      <trkpt lat="47.72304" lon="5.09042">
        <ele>463.39</ele>
        <time>2021-08-24T09:00:47Z</time>
      </trkpt>
      <trkpt lat="47.7231" lon="5.09041">
        <ele>464.32</ele>
        <time>2021-08-24T09:01:00Z</time>
      </trkpt>
      <trkpt lat="47.72316" lon="5.09041">
        <ele>464.1</ele>
        <time>2021-08-24T09:01:10Z</time>
      </trkpt>
      <trkpt lat="47.72327" lon="5.09042">
        <ele>464.24</ele>
        <time>2021-08-24T09:01:25Z</time>
      </trkpt>
      <trkpt lat="47.72329" lon="5.09041">
        <ele>464.6</ele>
        <time>2021-08-24T09:01:28Z</time>
      </trkpt>
      <trkpt lat="47.72338" lon="5.09042">
        <ele>464.63</ele>
        <time>2021-08-24T09:01:41Z</time>
      </trkpt>
      <trkpt lat="47.72347" lon="5.09043">
        <ele>464.98</ele>
        <time>2021-08-24T09:01:57Z</time>
      </trkpt>
      <trkpt lat="47.72353" lon="5.09047">
        <ele>466.19</ele>
        <time>2021-08-24T09:02:13Z</time>
      </trkpt>
      <trkpt lat="47.72358" lon="5.09047">
        <ele>465.62</ele>
        <time>2021-08-24T09:02:27Z</time>
      </trkpt>
      <trkpt lat="47.72368" lon="5.09049">
        <ele>465.84</ele>
        <time>2021-08-24T09:02:43Z</time>
      </trkpt>
      <trkpt lat="47.72369" lon="5.09051">
        <ele>466.41</ele>
        <time>2021-08-24T09:02:58Z</time>
      </trkpt>
      <trkpt lat="47.72368" lon="5.09058">
        <ele>467.1</ele>
        <time>2021-08-24T09:03:13Z</time>
      </trkpt>
      <trkpt lat="47.72372" lon="5.09065">
        <ele>466.61</ele>
        <time>2021-08-24T09:03:25Z</time>
      </trkpt>
      <trkpt lat="47.72376" lon="5.09061">
        <ele>467.82</ele>
        <time>2021-08-24T09:03:39Z</time>
      </trkpt>
      <trkpt lat="47.72386" lon="5.09058">
        <ele>468.02</ele>
        <time>2021-08-24T09:03:55Z</time>
      </trkpt>
      <trkpt lat="47.72394" lon="5.09052">
        <ele>467.95</ele>
        <time>2021-08-24T09:04:06Z</time>
      </trkpt>
      <trkpt lat="47.724" lon="5.09044">
        <ele>467.24</ele>
        <time>2021-08-24T09:04:20Z</time>
      </trkpt>
      <trkpt lat="47.724" lon="5.0904">
        <ele>468.48</ele>
        <time>2021-08-24T09:04:23Z</time>
      </trkpt>
      <trkpt lat="47.72396" lon="5.09028">
        <ele>468.08</ele>
        <time>2021-08-24T09:04:38Z</time>
      </trkpt>
      <trkpt lat="47.72394" lon="5.09028">
        <ele>468.31</ele>
        <time>2021-08-24T09:05:15Z</time>
      </trkpt>
      <trkpt lat="47.72392" lon="5.0903">
        <ele>468.63</ele>
        <time>2021-08-24T09:05:48Z</time>
      </trkpt>
      <trkpt lat="47.72388" lon="5.09032">
        <ele>468.09</ele>
        <time>2021-08-24T09:06:22Z</time>
      </trkpt>
      <trkpt lat="47.72388" lon="5.09029">
        <ele>467.98</ele>
        <time>2021-08-24T09:06:46Z</time>
      </trkpt>
      <trkpt lat="47.72388" lon="5.09013">
        <ele>467.46</ele>
        <time>2021-08-24T09:06:58Z</time>
      </trkpt>
      <trkpt lat="47.72385" lon="5.09016">
        <ele>467.52</ele>
        <time>2021-08-24T09:07:33Z</time>
      </trkpt>
      <trkpt lat="47.72383" lon="5.09014">
        <ele>466.86</ele>
        <time>2021-08-24T09:08:47Z</time>
      </trkpt>
      <trkpt lat="47.72378" lon="5.09016">
        <ele>467.09</ele>
        <time>2021-08-24T09:09:01Z</time>
      </trkpt>
      <trkpt lat="47.72376" lon="5.09012">
        <ele>466.25</ele>
        <time>2021-08-24T09:09:09Z</time>
      </trkpt>
      <trkpt lat="47.72377" lon="5.08997">
        <ele>465.73</ele>
        <time>2021-08-24T09:09:24Z</time>
      </trkpt>
      <trkpt lat="47.72374" lon="5.08987">
        <ele>466.11</ele>
        <time>2021-08-24T09:09:37Z</time>
      </trkpt>
      <trkpt lat="47.72375" lon="5.08983">
        <ele>467.46</ele>
        <time>2021-08-24T09:09:42Z</time>
      </trkpt>
      <trkpt lat="47.72379" lon="5.08971">
        <ele>468.41</ele>
        <time>2021-08-24T09:09:56Z</time>
      </trkpt>
      <trkpt lat="47.72384" lon="5.08959">
        <ele>468.49</ele>
        <time>2021-08-24T09:10:11Z</time>
      </trkpt>
      <trkpt lat="47.72383" lon="5.08951">
        <ele>469.06</ele>
        <time>2021-08-24T09:10:25Z</time>
      </trkpt>
      <trkpt lat="47.72386" lon="5.08958">
        <ele>468.88</ele>
        <time>2021-08-24T09:10:43Z</time>
      </trkpt>
      <trkpt lat="47.72382" lon="5.08968">
        <ele>468.31</ele>
        <time>2021-08-24T09:10:55Z</time>
      </trkpt>
      <trkpt lat="47.72377" lon="5.08983">
        <ele>466.79</ele>
        <time>2021-08-24T09:11:11Z</time>
      </trkpt>
      <trkpt lat="47.72378" lon="5.08993">
        <ele>466.51</ele>
        <time>2021-08-24T09:11:22Z</time>
      </trkpt>
      <trkpt lat="47.72378" lon="5.09">
        <ele>466.4</ele>
        <time>2021-08-24T09:11:31Z</time>
      </trkpt>
      <trkpt lat="47.72381" lon="5.09011">
        <ele>467.11</ele>
        <time>2021-08-24T09:11:42Z</time>
      </trkpt>
      <trkpt lat="47.72388" lon="5.09024">
        <ele>467.44</ele>
        <time>2021-08-24T09:11:56Z</time>
      </trkpt>
      <trkpt lat="47.72389" lon="5.09027">
        <ele>467.52</ele>
        <time>2021-08-24T09:12:00Z</time>
      </trkpt>
      <trkpt lat="47.7239" lon="5.09033">
        <ele>467.48</ele>
        <time>2021-08-24T09:12:05Z</time>
      </trkpt>
      <trkpt lat="47.72394" lon="5.0905">
        <ele>467.93</ele>
        <time>2021-08-24T09:12:20Z</time>
      </trkpt>
      <trkpt lat="47.72399" lon="5.09066">
        <ele>467.65</ele>
        <time>2021-08-24T09:12:34Z</time>
      </trkpt>
      <trkpt lat="47.72399" lon="5.09082">
        <ele>467.74</ele>
        <time>2021-08-24T09:12:47Z</time>
      </trkpt>
      <trkpt lat="47.72396" lon="5.09088">
        <ele>467.2</ele>
        <time>2021-08-24T09:13:09Z</time>
      </trkpt>
      <trkpt lat="47.72391" lon="5.09086">
        <ele>466.99</ele>
        <time>2021-08-24T09:13:30Z</time>
      </trkpt>
      <trkpt lat="47.72384" lon="5.09083">
        <ele>466.51</ele>
        <time>2021-08-24T09:13:37Z</time>
      </trkpt>
      <trkpt lat="47.72375" lon="5.09084">
        <ele>465.86</ele>
        <time>2021-08-24T09:13:49Z</time>
      </trkpt>
      <trkpt lat="47.72357" lon="5.09085">
        <ele>465.11</ele>
        <time>2021-08-24T09:14:07Z</time>
      </trkpt>
      <trkpt lat="47.72343" lon="5.09085">
        <ele>464.61</ele>
        <time>2021-08-24T09:14:19Z</time>
      </trkpt>
      <trkpt lat="47.72337" lon="5.09086">
        <ele>464.33</ele>
        <time>2021-08-24T09:14:26Z</time>
      </trkpt>
      <trkpt lat="47.7232" lon="5.09085">
        <ele>463.26</ele>
        <time>2021-08-24T09:14:41Z</time>
      </trkpt>
      <trkpt lat="47.72303" lon="5.0909">
        <ele>463.03</ele>
        <time>2021-08-24T09:15:00Z</time>
      </trkpt>
      <trkpt lat="47.72301" lon="5.09091">
        <ele>462.87</ele>
        <time>2021-08-24T09:15:48Z</time>
      </trkpt>
      <trkpt lat="47.72289" lon="5.09092">
        <ele>462.68</ele>
        <time>2021-08-24T09:15:59Z</time>
      </trkpt>
      <trkpt lat="47.72276" lon="5.09088">
        <ele>462.16</ele>
        <time>2021-08-24T09:16:14Z</time>
      </trkpt>
      <trkpt lat="47.72276" lon="5.09087">
        <ele>461.65</ele>
        <time>2021-08-24T09:16:15Z</time>
      </trkpt>
      <trkpt lat="47.72273" lon="5.09072">
        <ele>461.64</ele>
        <time>2021-08-24T09:16:26Z</time>
      </trkpt>
      <trkpt lat="47.72268" lon="5.0906">
        <ele>460.93</ele>
        <time>2021-08-24T09:16:36Z</time>
      </trkpt>
      <trkpt lat="47.72264" lon="5.09037">
        <ele>460.59</ele>
        <time>2021-08-24T09:16:51Z</time>
      </trkpt>
      <trkpt lat="47.72263" lon="5.09031">
        <ele>461.2</ele>
        <time>2021-08-24T09:16:57Z</time>
      </trkpt>
      <trkpt lat="47.72257" lon="5.0901">
        <ele>461.51</ele>
        <time>2021-08-24T09:17:13Z</time>
      </trkpt>
      <trkpt lat="47.72251" lon="5.08988">
        <ele>461.62</ele>
        <time>2021-08-24T09:17:28Z</time>
      </trkpt>
      <trkpt lat="47.72246" lon="5.08979">
        <ele>462.86</ele>
        <time>2021-08-24T09:17:46Z</time>
      </trkpt>
      <trkpt lat="47.7224" lon="5.08975">
        <ele>462.97</ele>
        <time>2021-08-24T09:17:52Z</time>
      </trkpt>
      <trkpt lat="47.72238" lon="5.08957">
        <ele>462.95</ele>
        <time>2021-08-24T09:18:05Z</time>
      </trkpt>
      <trkpt lat="47.72241" lon="5.0895">
        <ele>463.36</ele>
        <time>2021-08-24T09:18:20Z</time>
      </trkpt>
      <trkpt lat="47.7224" lon="5.08954">
        <ele>463.1</ele>
        <time>2021-08-24T09:18:23Z</time>
      </trkpt>
      <trkpt lat="47.72237" lon="5.08971">
        <ele>462.78</ele>
        <time>2021-08-24T09:18:38Z</time>
      </trkpt>
      <trkpt lat="47.72246" lon="5.08974">
        <ele>464.31</ele>
        <time>2021-08-24T09:18:52Z</time>
      </trkpt>
      <trkpt lat="47.72247" lon="5.08965">
        <ele>464.69</ele>
        <time>2021-08-24T09:19:01Z</time>
      </trkpt>
      <trkpt lat="47.72252" lon="5.08952">
        <ele>466.04</ele>
        <time>2021-08-24T09:19:18Z</time>
      </trkpt>
      <trkpt lat="47.72249" lon="5.08951">
        <ele>466.65</ele>
        <time>2021-08-24T09:19:34Z</time>
      </trkpt>
      <trkpt lat="47.72249" lon="5.08951">
        <ele>462.73</ele>
        <time>2021-08-24T09:19:37Z</time>
      </trkpt>
      <trkpt lat="47.72249" lon="5.08951">
        <ele>467.79</ele>
        <time>2021-08-24T09:19:38Z</time>
      </trkpt>
      <trkpt lat="47.72248" lon="5.08951">
        <ele>467.6</ele>
        <time>2021-08-24T09:19:39Z</time>
      </trkpt>
      <trkpt lat="47.72253" lon="5.08937">
        <ele>467.08</ele>
        <time>2021-08-24T09:20:00Z</time>
      </trkpt>
      <trkpt lat="47.72255" lon="5.08932">
        <ele>467.23</ele>
        <time>2021-08-24T09:20:05Z</time>
      </trkpt>
      <trkpt lat="47.72259" lon="5.08924">
        <ele>467.55</ele>
        <time>2021-08-24T09:20:13Z</time>
      </trkpt>
      <trkpt lat="47.72263" lon="5.08909">
        <ele>468.31</ele>
        <time>2021-08-24T09:20:27Z</time>
      </trkpt>
      <trkpt lat="47.72262" lon="5.08893">
        <ele>468.15</ele>
        <time>2021-08-24T09:20:40Z</time>
      </trkpt>
      <trkpt lat="47.72264" lon="5.0888">
        <ele>468.44</ele>
        <time>2021-08-24T09:20:52Z</time>
      </trkpt>
      <trkpt lat="47.72265" lon="5.08866">
        <ele>468.34</ele>
        <time>2021-08-24T09:21:05Z</time>
      </trkpt>
      <trkpt lat="47.72266" lon="5.08845">
        <ele>468.8</ele>
        <time>2021-08-24T09:21:22Z</time>
      </trkpt>
      <trkpt lat="47.72267" lon="5.08831">
        <ele>468.64</ele>
        <time>2021-08-24T09:21:36Z</time>
      </trkpt>
      <trkpt lat="47.72266" lon="5.08823">
        <ele>468.36</ele>
        <time>2021-08-24T09:21:43Z</time>
      </trkpt>
      <trkpt lat="47.72266" lon="5.08811">
        <ele>467.79</ele>
        <time>2021-08-24T09:21:52Z</time>
      </trkpt>
      <trkpt lat="47.72271" lon="5.0879">
        <ele>467.59</ele>
        <time>2021-08-24T09:22:08Z</time>
      </trkpt>
      <trkpt lat="47.72275" lon="5.0879">
        <ele>467.18</ele>
        <time>2021-08-24T09:22:18Z</time>
      </trkpt>
      <trkpt lat="47.72267" lon="5.08788">
        <ele>467.62</ele>
        <time>2021-08-24T09:22:28Z</time>
      </trkpt>
      <trkpt lat="47.72264" lon="5.08778">
        <ele>467.47</ele>
        <time>2021-08-24T09:23:15Z</time>
      </trkpt>
      <trkpt lat="47.72262" lon="5.08784">
        <ele>468.27</ele>
        <time>2021-08-24T09:24:48Z</time>
      </trkpt>
      <trkpt lat="47.72265" lon="5.08788">
        <ele>468.39</ele>
        <time>2021-08-24T09:25:29Z</time>
      </trkpt>
      <trkpt lat="47.72267" lon="5.08788">
        <ele>468.37</ele>
        <time>2021-08-24T09:25:31Z</time>
      </trkpt>
      <trkpt lat="47.72272" lon="5.0877">
        <ele>468.06</ele>
        <time>2021-08-24T09:25:44Z</time>
      </trkpt>
      <trkpt lat="47.72272" lon="5.08766">
        <ele>467.88</ele>
        <time>2021-08-24T09:25:46Z</time>
      </trkpt>
      <trkpt lat="47.72275" lon="5.08748">
        <ele>467.78</ele>
        <time>2021-08-24T09:25:59Z</time>
      </trkpt>
      <trkpt lat="47.72274" lon="5.08743">
        <ele>467.61</ele>
        <time>2021-08-24T09:26:03Z</time>
      </trkpt>
      <trkpt lat="47.72273" lon="5.08737">
        <ele>467.44</ele>
        <time>2021-08-24T09:26:08Z</time>
      </trkpt>
      <trkpt lat="47.72271" lon="5.08713">
        <ele>467.32</ele>
        <time>2021-08-24T09:26:24Z</time>
      </trkpt>
      <trkpt lat="47.7227" lon="5.08691">
        <ele>467.22</ele>
        <time>2021-08-24T09:26:40Z</time>
      </trkpt>
      <trkpt lat="47.72267" lon="5.0868">
        <ele>466.75</ele>
        <time>2021-08-24T09:26:49Z</time>
      </trkpt>
      <trkpt lat="47.72264" lon="5.08662">
        <ele>466.3</ele>
        <time>2021-08-24T09:27:03Z</time>
      </trkpt>
      <trkpt lat="47.72264" lon="5.08661">
        <ele>466.23</ele>
        <time>2021-08-24T09:27:04Z</time>
      </trkpt>
      <trkpt lat="47.72259" lon="5.08643">
        <ele>465.45</ele>
        <time>2021-08-24T09:27:18Z</time>
      </trkpt>
      <trkpt lat="47.72258" lon="5.08639">
        <ele>465.33</ele>
        <time>2021-08-24T09:27:22Z</time>
      </trkpt>
      <trkpt lat="47.72257" lon="5.08622">
        <ele>464.8</ele>
        <time>2021-08-24T09:27:37Z</time>
      </trkpt>
      <trkpt lat="47.72256" lon="5.08615">
        <ele>464.71</ele>
        <time>2021-08-24T09:27:45Z</time>
      </trkpt>
      <trkpt lat="47.72243" lon="5.08614">
        <ele>464.6</ele>
        <time>2021-08-24T09:28:00Z</time>
      </trkpt>
      <trkpt lat="47.72235" lon="5.08617">
        <ele>464.46</ele>
        <time>2021-08-24T09:28:18Z</time>
      </trkpt>
      <trkpt lat="47.72238" lon="5.08615">
        <ele>464.27</ele>
        <time>2021-08-24T09:28:29Z</time>
      </trkpt>
      <trkpt lat="47.72247" lon="5.08617">
        <ele>464.77</ele>
        <time>2021-08-24T09:28:37Z</time>
      </trkpt>
      <trkpt lat="47.72255" lon="5.08605">
        <ele>464.09</ele>
        <time>2021-08-24T09:28:51Z</time>
      </trkpt>
      <trkpt lat="47.72255" lon="5.08602">
        <ele>463.95</ele>
        <time>2021-08-24T09:28:53Z</time>
      </trkpt>
      <trkpt lat="47.72255" lon="5.08594">
        <ele>463.78</ele>
        <time>2021-08-24T09:28:59Z</time>
      </trkpt>
      <trkpt lat="47.7225" lon="5.08574">
        <ele>463.28</ele>
        <time>2021-08-24T09:29:13Z</time>
      </trkpt>
      <trkpt lat="47.72244" lon="5.08557">
        <ele>463.09</ele>
        <time>2021-08-24T09:29:28Z</time>
      </trkpt>
      <trkpt lat="47.72242" lon="5.08542">
        <ele>463.3</ele>
        <time>2021-08-24T09:29:42Z</time>
      </trkpt>
      <trkpt lat="47.7224" lon="5.08528">
        <ele>463.53</ele>
        <time>2021-08-24T09:29:54Z</time>
      </trkpt>
      <trkpt lat="47.72241" lon="5.08509">
        <ele>463.1</ele>
        <time>2021-08-24T09:30:09Z</time>
      </trkpt>
      <trkpt lat="47.72242" lon="5.08497">
        <ele>463.67</ele>
        <time>2021-08-24T09:30:23Z</time>
      </trkpt>
      <trkpt lat="47.72243" lon="5.08484">
        <ele>463.52</ele>
        <time>2021-08-24T09:30:37Z</time>
      </trkpt>
      <trkpt lat="47.72239" lon="5.08468">
        <ele>463.29</ele>
        <time>2021-08-24T09:30:51Z</time>
      </trkpt>
      <trkpt lat="47.7224" lon="5.08464">
        <ele>463.18</ele>
        <time>2021-08-24T09:31:10Z</time>
      </trkpt>
      <trkpt lat="47.72244" lon="5.08456">
        <ele>463.64</ele>
        <time>2021-08-24T09:31:29Z</time>
      </trkpt>
      <trkpt lat="47.72244" lon="5.08451">
        <ele>463.48</ele>
        <time>2021-08-24T09:31:35Z</time>
      </trkpt>
      <trkpt lat="47.72244" lon="5.08437">
        <ele>464.01</ele>
        <time>2021-08-24T09:31:48Z</time>
      </trkpt>
      <trkpt lat="47.7224" lon="5.08428">
        <ele>463.84</ele>
        <time>2021-08-24T09:32:02Z</time>
      </trkpt>
      <trkpt lat="47.72234" lon="5.08421">
        <ele>463.68</ele>
        <time>2021-08-24T09:32:15Z</time>
      </trkpt>
      <trkpt lat="47.72229" lon="5.08411">
        <ele>463.89</ele>
        <time>2021-08-24T09:32:31Z</time>
      </trkpt>
      <trkpt lat="47.72227" lon="5.08405">
        <ele>464.16</ele>
        <time>2021-08-24T09:32:43Z</time>
      </trkpt>
      <trkpt lat="47.72228" lon="5.08405">
        <ele>463.83</ele>
        <time>2021-08-24T09:32:46Z</time>
      </trkpt>
      <trkpt lat="47.72238" lon="5.0841">
        <ele>464.33</ele>
        <time>2021-08-24T09:32:57Z</time>
      </trkpt>
      <trkpt lat="47.72246" lon="5.08411">
        <ele>464.32</ele>
        <time>2021-08-24T09:33:04Z</time>
      </trkpt>
      <trkpt lat="47.72242" lon="5.08406">
        <ele>464.12</ele>
        <time>2021-08-24T09:33:18Z</time>
      </trkpt>
      <trkpt lat="47.72228" lon="5.08403">
        <ele>463.97</ele>
        <time>2021-08-24T09:33:32Z</time>
      </trkpt>
      <trkpt lat="47.72217" lon="5.08402">
        <ele>463.6</ele>
        <time>2021-08-24T09:33:48Z</time>
      </trkpt>
      <trkpt lat="47.72206" lon="5.08401">
        <ele>463.27</ele>
        <time>2021-08-24T09:34:05Z</time>
      </trkpt>
      <trkpt lat="47.72193" lon="5.08397">
        <ele>462.54</ele>
        <time>2021-08-24T09:34:19Z</time>
      </trkpt>
      <trkpt lat="47.72186" lon="5.08402">
        <ele>464.4</ele>
        <time>2021-08-24T09:34:32Z</time>
      </trkpt>
      <trkpt lat="47.72189" lon="5.08403">
        <ele>462.83</ele>
        <time>2021-08-24T09:35:02Z</time>
      </trkpt>
      <trkpt lat="47.72195" lon="5.08402">
        <ele>462.85</ele>
        <time>2021-08-24T09:35:11Z</time>
      </trkpt>
      <trkpt lat="47.72199" lon="5.08397">
        <ele>462.34</ele>
        <time>2021-08-24T09:35:23Z</time>
      </trkpt>
      <trkpt lat="47.72195" lon="5.08375">
        <ele>462.53</ele>
        <time>2021-08-24T09:35:37Z</time>
      </trkpt>
      <trkpt lat="47.72193" lon="5.08356">
        <ele>462.65</ele>
        <time>2021-08-24T09:35:53Z</time>
      </trkpt>
      <trkpt lat="47.72194" lon="5.08337">
        <ele>462.45</ele>
        <time>2021-08-24T09:36:07Z</time>
      </trkpt>
      <trkpt lat="47.72194" lon="5.08333">
        <ele>462.75</ele>
        <time>2021-08-24T09:36:11Z</time>
      </trkpt>
      <trkpt lat="47.72196" lon="5.08314">
        <ele>461.77</ele>
        <time>2021-08-24T09:36:26Z</time>
      </trkpt>
      <trkpt lat="47.72195" lon="5.08299">
        <ele>461.7</ele>
        <time>2021-08-24T09:36:39Z</time>
      </trkpt>
      <trkpt lat="47.72195" lon="5.08296">
        <ele>461.71</ele>
        <time>2021-08-24T09:36:41Z</time>
      </trkpt>
      <trkpt lat="47.72195" lon="5.08278">
        <ele>460.94</ele>
        <time>2021-08-24T09:36:56Z</time>
      </trkpt>
      <trkpt lat="47.72195" lon="5.08275">
        <ele>460.74</ele>
        <time>2021-08-24T09:36:59Z</time>
      </trkpt>
      <trkpt lat="47.72198" lon="5.0826">
        <ele>459.94</ele>
        <time>2021-08-24T09:37:11Z</time>
      </trkpt>
      <trkpt lat="47.72201" lon="5.08238">
        <ele>459.29</ele>
        <time>2021-08-24T09:37:27Z</time>
      </trkpt>
      <trkpt lat="47.72201" lon="5.08237">
        <ele>459.04</ele>
        <time>2021-08-24T09:37:28Z</time>
      </trkpt>
      <trkpt lat="47.72201" lon="5.08216">
        <ele>458.08</ele>
        <time>2021-08-24T09:37:44Z</time>
      </trkpt>
      <trkpt lat="47.72201" lon="5.08202">
        <ele>457.8</ele>
        <time>2021-08-24T09:37:58Z</time>
      </trkpt>
      <trkpt lat="47.72202" lon="5.08183">
        <ele>456.97</ele>
        <time>2021-08-24T09:38:14Z</time>
      </trkpt>
      <trkpt lat="47.72205" lon="5.08169">
        <ele>456.61</ele>
        <time>2021-08-24T09:38:29Z</time>
      </trkpt>
      <trkpt lat="47.72203" lon="5.08166">
        <ele>455.69</ele>
        <time>2021-08-24T09:39:09Z</time>
      </trkpt>
      <trkpt lat="47.72204" lon="5.08152">
        <ele>455.17</ele>
        <time>2021-08-24T09:39:22Z</time>
      </trkpt>
      <trkpt lat="47.72205" lon="5.08137">
        <ele>455.5</ele>
        <time>2021-08-24T09:39:36Z</time>
      </trkpt>
      <trkpt lat="47.72209" lon="5.08124">
        <ele>455.23</ele>
        <time>2021-08-24T09:39:52Z</time>
      </trkpt>
      <trkpt lat="47.72207" lon="5.08113">
        <ele>455.75</ele>
        <time>2021-08-24T09:40:06Z</time>
      </trkpt>
      <trkpt lat="47.72215" lon="5.08114">
        <ele>454.66</ele>
        <time>2021-08-24T09:40:18Z</time>
      </trkpt>
      <trkpt lat="47.72216" lon="5.08115">
        <ele>454.72</ele>
        <time>2021-08-24T09:40:19Z</time>
      </trkpt>
      <trkpt lat="47.72218" lon="5.08116">
        <ele>454.71</ele>
        <time>2021-08-24T09:40:21Z</time>
      </trkpt>
      <trkpt lat="47.72225" lon="5.08118">
        <ele>454.01</ele>
        <time>2021-08-24T09:40:28Z</time>
      </trkpt>
      <trkpt lat="47.72234" lon="5.08118">
        <ele>453.7</ele>
        <time>2021-08-24T09:40:43Z</time>
      </trkpt>
      <trkpt lat="47.72242" lon="5.08118">
        <ele>454.45</ele>
        <time>2021-08-24T09:41:11Z</time>
      </trkpt>
      <trkpt lat="47.7225" lon="5.08119">
        <ele>454.1</ele>
        <time>2021-08-24T09:41:34Z</time>
      </trkpt>
      <trkpt lat="47.72263" lon="5.08124">
        <ele>454.3</ele>
        <time>2021-08-24T09:41:52Z</time>
      </trkpt>
      <trkpt lat="47.72273" lon="5.08125">
        <ele>454.55</ele>
        <time>2021-08-24T09:42:08Z</time>
      </trkpt>
      <trkpt lat="47.72266" lon="5.08118">
        <ele>454.18</ele>
        <time>2021-08-24T09:42:39Z</time>
      </trkpt>
      <trkpt lat="47.7225" lon="5.08115">
        <ele>453.92</ele>
        <time>2021-08-24T09:42:52Z</time>
      </trkpt>
      <trkpt lat="47.72236" lon="5.08113">
        <ele>454.61</ele>
        <time>2021-08-24T09:43:06Z</time>
      </trkpt>
      <trkpt lat="47.72234" lon="5.08112">
        <ele>454.59</ele>
        <time>2021-08-24T09:43:08Z</time>
      </trkpt>
      <trkpt lat="47.72223" lon="5.08112">
        <ele>454.99</ele>
        <time>2021-08-24T09:43:22Z</time>
      </trkpt>
      <trkpt lat="47.72211" lon="5.08112">
        <ele>455.14</ele>
        <time>2021-08-24T09:43:46Z</time>
      </trkpt>
      <trkpt lat="47.72198" lon="5.08108">
        <ele>457.33</ele>
        <time>2021-08-24T09:44:00Z</time>
      </trkpt>
      <trkpt lat="47.72195" lon="5.0811">
        <ele>458.3</ele>
        <time>2021-08-24T09:44:30Z</time>
      </trkpt>
      <trkpt lat="47.7218" lon="5.08104">
        <ele>459.72</ele>
        <time>2021-08-24T09:44:45Z</time>
      </trkpt>
      <trkpt lat="47.72168" lon="5.08102">
        <ele>461.6</ele>
        <time>2021-08-24T09:44:57Z</time>
      </trkpt>
      <trkpt lat="47.72156" lon="5.081">
        <ele>462.35</ele>
        <time>2021-08-24T09:45:10Z</time>
      </trkpt>
      <trkpt lat="47.72141" lon="5.08098">
        <ele>463.8</ele>
        <time>2021-08-24T09:45:26Z</time>
      </trkpt>
      <trkpt lat="47.7213" lon="5.08096">
        <ele>463.98</ele>
        <time>2021-08-24T09:45:37Z</time>
      </trkpt>
      <trkpt lat="47.72117" lon="5.08095">
        <ele>464.51</ele>
        <time>2021-08-24T09:45:49Z</time>
      </trkpt>
      <trkpt lat="47.72102" lon="5.08092">
        <ele>465.16</ele>
        <time>2021-08-24T09:46:02Z</time>
      </trkpt>
      <trkpt lat="47.72089" lon="5.08091">
        <ele>465.99</ele>
        <time>2021-08-24T09:46:17Z</time>
      </trkpt>
      <trkpt lat="47.72087" lon="5.08093">
        <ele>465.49</ele>
        <time>2021-08-24T09:46:54Z</time>
      </trkpt>
      <trkpt lat="47.72078" lon="5.08089">
        <ele>466.11</ele>
        <time>2021-08-24T09:47:16Z</time>
      </trkpt>
      <trkpt lat="47.72077" lon="5.08089">
        <ele>466.4</ele>
        <time>2021-08-24T09:47:17Z</time>
      </trkpt>
      <trkpt lat="47.72063" lon="5.08089">
        <ele>466.15</ele>
        <time>2021-08-24T09:47:30Z</time>
      </trkpt>
      <trkpt lat="47.72051" lon="5.08085">
        <ele>465.84</ele>
        <time>2021-08-24T09:47:44Z</time>
      </trkpt>
      <trkpt lat="47.72039" lon="5.08089">
        <ele>466.28</ele>
        <time>2021-08-24T09:47:56Z</time>
      </trkpt>
      <trkpt lat="47.72036" lon="5.08087">
        <ele>466.92</ele>
        <time>2021-08-24T09:48:13Z</time>
      </trkpt>
      <trkpt lat="47.72036" lon="5.08087">
        <ele>466.77</ele>
        <time>2021-08-24T09:48:16Z</time>
      </trkpt>
    </trkseg>
  </trk>
</gpx>